Time;durP1;ratioP1;P1;durP2;ratioP2;P2;SDS_P1;SDS_P2;PMS_P1;PMS_P2;Temp;Humidity;BMP_temperature;BMP_pressure;BME280_temperature;BME280_humidity;BME280_pressure;Samples;Min_cycle;Max_cycle;Signal;HPM_P1;HPM_P2
2022/01/11 00:00:31;;;;;;;830.17;165.18;;;;;;;;;;5076297;28;20048;-60
2022/01/11 00:02:58;;;;;;;719.85;149.90;;;;;;;;;;5074984;28;20055;-60
2022/01/11 00:05:35;;;;;;;682.13;139.43;;;;;;;;;;5068767;28;20044;-60
2022/01/11 00:08:01;;;;;;;627.28;157.85;;;;;;;;;;5072274;28;20039;-61
2022/01/11 00:10:35;;;;;;;909.22;188.20;;;;;;;;;;5075458;28;20042;-61
2022/01/11 00:13:02;;;;;;;717.95;163.93;;;;;;;;;;5074353;28;20418;-62
2022/01/11 00:15:29;;;;;;;919.60;185.45;;;;;;;;;;5053297;28;20032;-60
2022/01/11 00:17:57;;;;;;;895.13;181.48;;;;;;;;;;5073128;28;20470;-60
2022/01/11 00:20:23;;;;;;;874.15;186.32;;;;;;;;;;5069703;28;20102;-60
2022/01/11 00:25:26;;;;;;;772.67;163.13;;;;;;;;;;5094367;28;20040;-59
2022/01/11 00:27:52;;;;;;;917.55;177.63;;;;;;;;;;5094492;28;20505;-60
2022/01/11 00:30:20;;;;;;;778.20;172.77;;;;;;;;;;5073275;28;20082;-62
2022/01/11 00:32:51;;;;;;;748.05;159.80;;;;;;;;;;5078122;28;20469;-60
2022/01/11 00:35:21;;;;;;;761.28;154.27;;;;;;;;;;5074806;28;20093;-60
2022/01/11 00:37:48;;;;;;;864.35;174.48;;;;;;;;;;5078055;28;20148;-60
2022/01/11 00:40:14;;;;;;;660.72;156.98;;;;;;;;;;5071357;28;20079;-60
2022/01/11 00:42:40;;;;;;;729.78;154.50;;;;;;;;;;5094511;28;20464;-60
2022/01/11 00:45:07;;;;;;;760.75;158.38;;;;;;;;;;5098630;28;20070;-60
2022/01/11 00:47:34;;;;;;;571.38;120.20;;;;;;;;;;5094090;28;20043;-60
2022/01/11 00:50:00;;;;;;;821.50;170.48;;;;;;;;;;5092168;28;20044;-60
2022/01/11 00:52:26;;;;;;;708.30;155.00;;;;;;;;;;5074558;28;20040;-60
2022/01/11 00:54:52;;;;;;;713.42;155.07;;;;;;;;;;5075383;28;20028;-60
2022/01/11 00:57:18;;;;;;;596.85;145.35;;;;;;;;;;5078151;28;20031;-60
2022/01/11 00:59:44;;;;;;;479.70;130.73;;;;;;;;;;5075528;28;20047;-61
2022/01/11 01:02:10;;;;;;;492.05;107.82;;;;;;;;;;5072407;28;20091;-61
2022/01/11 01:04:36;;;;;;;529.65;138.85;;;;;;;;;;5064049;28;20081;-60
2022/01/11 01:07:02;;;;;;;467.17;117.00;;;;;;;;;;5077260;28;20083;-60
2022/01/11 01:09:37;;;;;;;535.05;126.75;;;;;;;;;;5075093;28;20084;-60
2022/01/11 01:12:03;;;;;;;518.53;114.38;;;;;;;;;;5092282;28;20553;-60
2022/01/11 01:14:29;;;;;;;596.92;142.32;;;;;;;;;;5073472;28;20036;-60
2022/01/11 01:16:55;;;;;;;649.85;136.30;;;;;;;;;;5074925;28;20062;-60
2022/01/11 01:19:21;;;;;;;582.22;142.63;;;;;;;;;;5094548;28;20067;-59
2022/01/11 01:21:49;;;;;;;534.00;135.90;;;;;;;;;;5095433;28;20467;-60
2022/01/11 01:24:15;;;;;;;519.42;133.48;;;;;;;;;;5076735;28;20128;-60
2022/01/11 01:26:41;;;;;;;570.13;136.70;;;;;;;;;;5093990;28;20051;-60
2022/01/11 01:29:08;;;;;;;584.83;134.18;;;;;;;;;;5074835;28;20039;-61
2022/01/11 01:31:34;;;;;;;430.20;98.82;;;;;;;;;;5096240;28;20078;-60
2022/01/11 01:34:00;;;;;;;522.03;125.70;;;;;;;;;;5093186;28;20493;-59
2022/01/11 01:36:26;;;;;;;469.63;120.75;;;;;;;;;;5094378;28;20036;-59
2022/01/11 01:38:52;;;;;;;467.42;110.10;;;;;;;;;;5074991;28;20040;-60
2022/01/11 01:41:20;;;;;;;548.55;129.32;;;;;;;;;;5080031;28;20046;-61
2022/01/11 01:43:56;;;;;;;544.17;122.65;;;;;;;;;;5077055;28;20062;-60
2022/01/11 01:46:23;;;;;;;552.67;125.25;;;;;;;;;;5094622;28;20093;-60
2022/01/11 01:48:50;;;;;;;500.70;122.93;;;;;;;;;;5078443;28;20083;-61
2022/01/11 01:51:16;;;;;;;615.13;135.70;;;;;;;;;;5094906;28;20102;-60
2022/01/11 01:53:47;;;;;;;436.55;91.68;;;;;;;;;;5062497;28;20097;-59
2022/01/11 01:56:14;;;;;;;573.80;126.35;;;;;;;;;;5097889;28;20051;-59
2022/01/11 01:58:42;;;;;;;579.35;118.78;;;;;;;;;;5077267;28;20039;-60
2022/01/11 02:01:08;;;;;;;616.33;124.75;;;;;;;;;;5098803;28;20042;-60
2022/01/11 02:03:39;;;;;;;604.15;119.97;;;;;;;;;;5072558;28;20083;-60
2022/01/11 02:06:07;;;;;;;595.55;121.45;;;;;;;;;;5078211;28;20035;-60
2022/01/11 02:08:33;;;;;;;565.92;111.88;;;;;;;;;;5075634;28;20386;-60
2022/01/11 02:10:59;;;;;;;525.70;126.03;;;;;;;;;;5078472;28;20055;-60
2022/01/11 02:13:25;;;;;;;684.55;135.45;;;;;;;;;;5096197;28;20062;-61
2022/01/11 02:15:51;;;;;;;757.15;139.88;;;;;;;;;;5094678;28;20032;-61
2022/01/11 02:18:20;;;;;;;677.55;126.00;;;;;;;;;;5080501;28;20043;-60
2022/01/11 02:20:47;;;;;;;593.05;131.88;;;;;;;;;;5097823;28;20755;-60
2022/01/11 02:23:14;;;;;;;722.97;139.93;;;;;;;;;;5091656;28;20059;-61
2022/01/11 02:25:41;;;;;;;646.03;126.07;;;;;;;;;;5100690;28;20043;-61
2022/01/11 02:28:08;;;;;;;618.22;124.53;;;;;;;;;;5095132;28;20060;-61
2022/01/11 02:30:34;;;;;;;593.80;127.40;;;;;;;;;;5091676;28;20067;-60
2022/01/11 02:33:03;;;;;;;623.90;126.35;;;;;;;;;;5079342;28;20126;-60
2022/01/11 02:35:29;;;;;;;599.20;115.35;;;;;;;;;;5078007;28;20387;-60
2022/01/11 02:37:55;;;;;;;631.28;111.65;;;;;;;;;;5076035;28;20390;-61
2022/01/11 02:40:22;;;;;;;610.67;113.35;;;;;;;;;;5077546;28;20040;-60
2022/01/11 02:42:48;;;;;;;563.17;96.75;;;;;;;;;;5077907;28;21251;-60
2022/01/11 02:45:15;;;;;;;415.25;65.60;;;;;;;;;;5078048;28;20047;-60
2022/01/11 02:47:42;;;;;;;498.33;83.38;;;;;;;;;;5077811;28;20435;-61
2022/01/11 02:50:08;;;;;;;576.55;94.80;;;;;;;;;;5057038;28;20410;-60
2022/01/11 02:52:34;;;;;;;572.90;97.43;;;;;;;;;;5074190;28;20036;-62
2022/01/11 02:55:01;;;;;;;493.88;91.05;;;;;;;;;;5082210;28;20035;-60
2022/01/11 02:57:27;;;;;;;539.22;94.63;;;;;;;;;;5058568;28;20469;-60
2022/01/11 02:59:54;;;;;;;543.65;86.63;;;;;;;;;;5076123;28;20778;-60
2022/01/11 03:02:20;;;;;;;507.42;91.22;;;;;;;;;;5096516;28;21227;-59
2022/01/11 03:04:46;;;;;;;609.88;108.75;;;;;;;;;;5078239;28;20043;-60
2022/01/11 03:07:12;;;;;;;476.42;83.85;;;;;;;;;;5074967;28;20043;-61
2022/01/11 03:09:57;;;;;;;520.78;91.60;;;;;;;;;;5100354;28;20039;-61
2022/01/11 03:12:23;;;;;;;531.67;99.97;;;;;;;;;;5098938;28;20040;-59
2022/01/11 03:14:49;;;;;;;584.92;105.43;;;;;;;;;;5099364;28;20036;-60
2022/01/11 03:17:16;;;;;;;421.05;77.03;;;;;;;;;;5094729;28;20398;-61
2022/01/11 03:19:42;;;;;;;502.08;92.05;;;;;;;;;;5075941;28;20075;-61
2022/01/11 03:22:08;;;;;;;581.90;114.68;;;;;;;;;;5059991;28;20056;-61
2022/01/11 03:24:34;;;;;;;610.85;112.85;;;;;;;;;;5097307;28;20463;-61
2022/01/11 03:27:00;;;;;;;643.95;119.72;;;;;;;;;;5079531;28;20128;-62
2022/01/11 03:29:26;;;;;;;501.30;96.68;;;;;;;;;;5074576;28;20039;-62
2022/01/11 03:31:52;;;;;;;512.28;103.45;;;;;;;;;;5098317;28;20437;-62
2022/01/11 03:34:19;;;;;;;498.38;103.28;;;;;;;;;;5095945;28;20038;-62
2022/01/11 03:36:46;;;;;;;560.35;118.22;;;;;;;;;;5078583;28;20055;-62
2022/01/11 03:39:12;;;;;;;579.28;123.65;;;;;;;;;;5073513;28;20042;-62
2022/01/11 03:41:38;;;;;;;592.13;120.35;;;;;;;;;;5098516;28;20050;-62
2022/01/11 03:44:04;;;;;;;489.60;91.03;;;;;;;;;;5093509;28;20040;-62
2022/01/11 03:46:31;;;;;;;538.08;112.18;;;;;;;;;;5080536;28;20144;-61
2022/01/11 03:48:57;;;;;;;571.30;123.53;;;;;;;;;;5076119;28;20060;-62
2022/01/11 03:51:23;;;;;;;513.20;114.68;;;;;;;;;;5074380;28;20501;-61
2022/01/11 03:54:01;;;;;;;613.35;125.35;;;;;;;;;;5093164;28;20036;-60
2022/01/11 03:56:27;;;;;;;577.15;123.07;;;;;;;;;;5094748;28;20036;-62
2022/01/11 03:58:53;;;;;;;614.15;126.45;;;;;;;;;;5073597;28;20040;-61
2022/01/11 04:01:19;;;;;;;658.83;129.43;;;;;;;;;;5062408;28;20035;-62
2022/01/11 04:03:46;;;;;;;566.90;124.10;;;;;;;;;;5096717;28;20419;-60
2022/01/11 04:06:16;;;;;;;519.47;119.00;;;;;;;;;;5072599;28;20137;-62
2022/01/11 04:08:42;;;;;;;614.10;122.32;;;;;;;;;;5092919;28;20101;-61
2022/01/11 04:11:08;;;;;;;576.35;101.78;;;;;;;;;;5092399;28;20450;-62
2022/01/11 04:13:34;;;;;;;724.17;129.80;;;;;;;;;;5097115;28;20044;-62
2022/01/11 04:16:01;;;;;;;899.67;139.82;;;;;;;;;;5079012;28;20040;-62
2022/01/11 04:18:27;;;;;;;587.08;110.07;;;;;;;;;;5079466;28;20040;-62
2022/01/11 04:20:53;;;;;;;632.45;115.88;;;;;;;;;;5095756;28;20753;-61
2022/01/11 04:23:19;;;;;;;591.47;113.60;;;;;;;;;;5095771;28;20121;-61
2022/01/11 04:25:45;;;;;;;572.22;111.28;;;;;;;;;;5093081;28;20158;-62
2022/01/11 04:28:11;;;;;;;598.35;126.22;;;;;;;;;;5092255;28;20046;-62
2022/01/11 04:30:38;;;;;;;474.80;108.57;;;;;;;;;;5076936;28;20036;-62
2022/01/11 04:33:04;;;;;;;602.33;125.13;;;;;;;;;;5081959;28;20044;-62
2022/01/11 04:35:31;;;;;;;626.33;126.53;;;;;;;;;;5074567;28;20043;-61
2022/01/11 04:37:57;;;;;;;540.25;100.78;;;;;;;;;;5069175;28;20093;-61
2022/01/11 04:40:24;;;;;;;698.63;128.20;;;;;;;;;;5059127;28;20039;-61
2022/01/11 04:42:50;;;;;;;694.92;127.45;;;;;;;;;;5089690;28;20062;-62
2022/01/11 04:45:16;;;;;;;832.45;142.50;;;;;;;;;;5073459;28;20065;-61
2022/01/11 04:47:45;;;;;;;635.08;113.35;;;;;;;;;;5075090;28;20151;-61
2022/01/11 04:50:11;;;;;;;717.17;127.22;;;;;;;;;;5073730;28;20116;-60
2022/01/11 04:52:37;;;;;;;568.05;101.63;;;;;;;;;;5071261;28;20487;-61
2022/01/11 04:55:04;;;;;;;571.97;118.00;;;;;;;;;;5072586;28;20486;-62
2022/01/11 04:57:30;;;;;;;569.50;113.40;;;;;;;;;;5074924;28;20040;-61
2022/01/11 04:59:56;;;;;;;626.05;120.65;;;;;;;;;;5090780;28;20040;-61
2022/01/11 05:02:22;;;;;;;589.03;125.15;;;;;;;;;;5074557;28;20477;-62
2022/01/11 05:04:48;;;;;;;575.25;120.95;;;;;;;;;;5094142;28;20461;-62
2022/01/11 05:07:14;;;;;;;560.05;121.57;;;;;;;;;;5076140;28;20047;-62
2022/01/11 05:09:41;;;;;;;553.53;119.80;;;;;;;;;;5074373;28;20051;-62
2022/01/11 05:12:07;;;;;;;512.75;112.38;;;;;;;;;;5058743;28;20138;-62
2022/01/11 05:14:33;;;;;;;419.83;98.65;;;;;;;;;;5073526;28;20039;-62
2022/01/11 05:16:59;;;;;;;485.05;111.13;;;;;;;;;;5080221;28;20031;-62
2022/01/11 05:19:25;;;;;;;459.83;108.22;;;;;;;;;;5094705;28;20061;-61
2022/01/11 05:21:51;;;;;;;429.77;106.78;;;;;;;;;;5077500;28;20075;-62
2022/01/11 05:24:18;;;;;;;342.33;84.60;;;;;;;;;;5093550;28;20545;-62
2022/01/11 05:26:44;;;;;;;452.38;99.88;;;;;;;;;;5058137;28;20043;-61
2022/01/11 05:29:10;;;;;;;432.33;92.07;;;;;;;;;;5078457;28;20094;-62
2022/01/11 05:31:36;;;;;;;480.85;107.45;;;;;;;;;;5063132;28;20569;-62
2022/01/11 05:34:03;;;;;;;536.42;108.57;;;;;;;;;;5056541;28;20042;-62
2022/01/11 05:36:29;;;;;;;511.40;112.47;;;;;;;;;;5079045;28;20131;-62
2022/01/11 05:38:55;;;;;;;630.85;121.05;;;;;;;;;;5061102;28;20038;-61
2022/01/11 05:41:21;;;;;;;606.53;118.68;;;;;;;;;;5079993;28;20286;-62
2022/01/11 05:43:47;;;;;;;570.83;119.70;;;;;;;;;;5084774;28;20056;-62
2022/01/11 05:46:13;;;;;;;569.35;117.07;;;;;;;;;;5077296;28;20048;-63
2022/01/11 05:48:42;;;;;;;466.23;108.40;;;;;;;;;;5092081;28;20047;-62
2022/01/11 05:51:08;;;;;;;343.88;76.85;;;;;;;;;;5092370;28;20055;-61
2022/01/11 05:53:34;;;;;;;424.52;101.05;;;;;;;;;;5094782;28;20061;-63
2022/01/11 05:56:00;;;;;;;392.20;104.80;;;;;;;;;;5060152;28;20092;-63
2022/01/11 05:58:26;;;;;;;359.60;94.75;;;;;;;;;;5078016;28;20036;-62
2022/01/11 06:00:55;;;;;;;250.70;72.53;;;;;;;;;;5079114;28;20043;-61
2022/01/11 06:03:22;;;;;;;295.85;85.78;;;;;;;;;;5100022;28;20040;-61
2022/01/11 06:05:48;;;;;;;280.98;79.68;;;;;;;;;;5060770;28;20043;-61
2022/01/11 06:08:16;;;;;;;339.55;91.40;;;;;;;;;;5078558;28;20044;-62
2022/01/11 06:10:43;;;;;;;293.88;83.75;;;;;;;;;;5061135;28;20092;-62
2022/01/11 06:13:10;;;;;;;294.98;86.25;;;;;;;;;;5076759;28;20083;-62
2022/01/11 06:15:36;;;;;;;269.70;80.43;;;;;;;;;;5061186;28;20070;-63
2022/01/11 06:18:02;;;;;;;360.98;97.95;;;;;;;;;;5075044;28;20032;-63
2022/01/11 06:20:28;;;;;;;291.30;84.40;;;;;;;;;;5075254;28;20027;-62
2022/01/11 06:22:55;;;;;;;321.75;81.28;;;;;;;;;;5073924;28;20059;-62
2022/01/11 06:25:21;;;;;;;330.88;86.28;;;;;;;;;;5078573;28;20055;-62
2022/01/11 06:27:47;;;;;;;387.42;100.45;;;;;;;;;;5066217;28;20082;-61
2022/01/11 06:30:14;;;;;;;386.70;107.18;;;;;;;;;;5058808;28;20134;-62
2022/01/11 06:32:43;;;;;;;339.10;92.05;;;;;;;;;;5076931;28;20114;-63
2022/01/11 06:35:10;;;;;;;337.23;97.00;;;;;;;;;;5077602;28;20042;-62
2022/01/11 06:37:36;;;;;;;337.83;95.47;;;;;;;;;;5080199;28;20035;-62
2022/01/11 06:40:03;;;;;;;312.65;90.30;;;;;;;;;;5073474;28;20118;-62
2022/01/11 06:42:30;;;;;;;344.08;81.28;;;;;;;;;;5077660;28;20050;-61
2022/01/11 06:44:57;;;;;;;452.83;109.60;;;;;;;;;;5095730;28;20052;-62
2022/01/11 06:47:23;;;;;;;448.23;107.47;;;;;;;;;;5098463;27;20046;-62
2022/01/11 06:49:49;;;;;;;493.48;108.90;;;;;;;;;;5075273;28;20071;-61
2022/01/11 06:52:15;;;;;;;496.88;99.35;;;;;;;;;;5077039;28;20465;-61
2022/01/11 06:54:42;;;;;;;487.67;94.05;;;;;;;;;;5095843;28;20092;-61
2022/01/11 06:57:08;;;;;;;462.42;100.55;;;;;;;;;;5098856;28;20035;-62
2022/01/11 06:59:37;;;;;;;463.52;97.47;;;;;;;;;;5059754;28;20105;-62
2022/01/11 07:02:04;;;;;;;403.58;76.90;;;;;;;;;;5076605;28;20066;-61
2022/01/11 07:04:30;;;;;;;486.02;95.43;;;;;;;;;;5095240;28;20393;-62
2022/01/11 07:06:56;;;;;;;420.75;82.50;;;;;;;;;;5055775;28;20044;-61
2022/01/11 07:09:22;;;;;;;411.92;89.85;;;;;;;;;;5097077;28;20039;-60
2022/01/11 07:11:48;;;;;;;402.30;93.15;;;;;;;;;;5074237;28;20516;-62
2022/01/11 07:14:15;;;;;;;355.02;76.30;;;;;;;;;;5059419;28;20294;-62
2022/01/11 07:16:43;;;;;;;324.10;72.85;;;;;;;;;;5096159;28;20442;-62
2022/01/11 07:19:09;;;;;;;359.70;83.75;;;;;;;;;;5079975;28;20040;-61
2022/01/11 07:21:36;;;;;;;380.15;84.65;;;;;;;;;;5092083;28;20089;-61
2022/01/11 07:24:02;;;;;;;446.83;98.10;;;;;;;;;;5077540;28;20092;-63
2022/01/11 07:26:28;;;;;;;372.83;93.05;;;;;;;;;;5073419;28;20050;-61
2022/01/11 07:28:54;;;;;;;278.73;80.93;;;;;;;;;;5096266;28;20031;-62
2022/01/11 07:31:21;;;;;;;276.25;74.25;;;;;;;;;;5057535;28;20051;-62
2022/01/11 07:33:47;;;;;;;240.25;65.25;;;;;;;;;;5064740;28;20423;-62
2022/01/11 07:36:13;;;;;;;265.90;73.65;;;;;;;;;;5078492;28;20042;-61
2022/01/11 07:38:39;;;;;;;251.98;73.72;;;;;;;;;;5076450;28;20044;-62
2022/01/11 07:41:05;;;;;;;227.73;63.65;;;;;;;;;;5095383;28;20528;-62
2022/01/11 07:43:31;;;;;;;295.25;79.82;;;;;;;;;;5097508;28;20031;-61
2022/01/11 07:45:58;;;;;;;249.80;68.82;;;;;;;;;;5079931;28;20555;-61
2022/01/11 07:48:24;;;;;;;225.98;73.35;;;;;;;;;;5074482;28;20131;-62
2022/01/11 07:50:50;;;;;;;239.93;66.25;;;;;;;;;;5081280;28;20036;-60
2022/01/11 07:53:16;;;;;;;279.70;76.53;;;;;;;;;;5080036;28;20054;-61
2022/01/11 07:55:42;;;;;;;293.70;81.68;;;;;;;;;;5100044;28;20044;-61
2022/01/11 07:58:08;;;;;;;248.50;70.22;;;;;;;;;;5056629;28;20397;-63
2022/01/11 08:00:34;;;;;;;253.15;74.65;;;;;;;;;;5061100;28;20036;-62
2022/01/11 08:03:00;;;;;;;247.80;76.13;;;;;;;;;;5074523;28;20436;-60
2022/01/11 08:05:26;;;;;;;232.35;67.75;;;;;;;;;;5090072;28;20482;-62
2022/01/11 08:07:52;;;;;;;299.30;80.25;;;;;;;;;;5093541;28;20035;-62
2022/01/11 08:10:18;;;;;;;283.63;75.82;;;;;;;;;;5096004;28;20111;-62
2022/01/11 08:12:45;;;;;;;289.17;83.55;;;;;;;;;;5075684;28;20493;-63
2022/01/11 08:15:12;;;;;;;267.48;79.57;;;;;;;;;;5076892;28;21296;-62
2022/01/11 08:17:38;;;;;;;230.85;72.63;;;;;;;;;;5078212;28;20167;-61
2022/01/11 08:20:05;;;;;;;274.20;85.28;;;;;;;;;;5077493;28;20481;-62
2022/01/11 08:22:31;;;;;;;284.23;84.30;;;;;;;;;;5088796;28;20136;-62
2022/01/11 08:24:57;;;;;;;302.40;88.10;;;;;;;;;;5094208;28;20062;-63
2022/01/11 08:27:23;;;;;;;233.48;68.90;;;;;;;;;;5074420;28;20075;-62
2022/01/11 08:29:50;;;;;;;215.88;66.50;;;;;;;;;;5096856;28;20044;-61
2022/01/11 08:32:16;;;;;;;251.15;81.47;;;;;;;;;;5088508;28;20048;-62
2022/01/11 08:34:42;;;;;;;175.77;61.80;;;;;;;;;;5092764;28;20434;-62
2022/01/11 08:37:09;;;;;;;218.25;73.68;;;;;;;;;;5098967;28;20035;-62
2022/01/11 08:39:35;;;;;;;260.17;84.82;;;;;;;;;;5100098;28;20542;-62
2022/01/11 08:42:01;;;;;;;234.55;77.75;;;;;;;;;;5081781;28;20043;-61
2022/01/11 08:44:28;;;;;;;218.52;71.95;;;;;;;;;;5073195;28;20128;-61
2022/01/11 08:46:54;;;;;;;229.30;77.05;;;;;;;;;;5058166;28;20035;-61
2022/01/11 08:49:21;;;;;;;207.93;73.10;;;;;;;;;;5073289;28;20086;-62
2022/01/11 08:51:47;;;;;;;192.07;65.72;;;;;;;;;;5062697;28;20036;-62
2022/01/11 08:54:14;;;;;;;217.45;75.45;;;;;;;;;;5100419;28;20070;-62
2022/01/11 08:56:40;;;;;;;160.85;58.58;;;;;;;;;;5099443;28;20036;-63
2022/01/11 08:59:07;;;;;;;177.85;66.68;;;;;;;;;;5098764;28;20044;-63
2022/01/11 09:01:34;;;;;;;173.77;64.25;;;;;;;;;;5085938;28;20121;-62
2022/01/11 09:04:01;;;;;;;186.45;66.75;;;;;;;;;;5084634;28;20168;-63
2022/01/11 09:06:27;;;;;;;173.20;65.00;;;;;;;;;;5077729;28;20055;-63
2022/01/11 09:08:53;;;;;;;135.23;52.83;;;;;;;;;;5062470;28;20044;-63
2022/01/11 09:11:19;;;;;;;185.52;67.90;;;;;;;;;;5100044;28;20089;-63
2022/01/11 09:13:46;;;;;;;158.05;60.10;;;;;;;;;;5062335;28;20058;-62
2022/01/11 09:16:13;;;;;;;176.35;68.88;;;;;;;;;;5097135;28;20392;-61
2022/01/11 09:18:39;;;;;;;160.75;65.93;;;;;;;;;;5089326;28;20060;-63
2022/01/11 09:21:05;;;;;;;139.80;57.92;;;;;;;;;;5087557;28;20199;-63
2022/01/11 09:23:32;;;;;;;151.48;64.22;;;;;;;;;;5088359;28;20066;-62
2022/01/11 09:25:58;;;;;;;152.90;60.90;;;;;;;;;;5089219;28;20040;-63
2022/01/11 09:28:25;;;;;;;164.38;64.20;;;;;;;;;;5104381;28;20082;-62
2022/01/11 09:30:51;;;;;;;144.48;60.08;;;;;;;;;;5078574;28;20129;-63
2022/01/11 09:33:18;;;;;;;144.18;60.88;;;;;;;;;;5101680;28;20135;-63
2022/01/11 09:35:44;;;;;;;133.63;58.42;;;;;;;;;;5082827;28;20100;-64
2022/01/11 09:38:10;;;;;;;127.15;52.42;;;;;;;;;;5106920;28;20047;-63
2022/01/11 09:40:36;;;;;;;138.73;63.80;;;;;;;;;;5080235;28;20433;-62
2022/01/11 09:43:02;;;;;;;116.53;49.72;;;;;;;;;;5087359;28;20040;-63
2022/01/11 09:45:29;;;;;;;122.13;54.00;;;;;;;;;;5098596;28;20521;-63
2022/01/11 09:47:55;;;;;;;130.73;58.33;;;;;;;;;;5070680;28;20032;-63
2022/01/11 09:50:21;;;;;;;121.88;54.70;;;;;;;;;;5094154;28;20082;-63
2022/01/11 09:52:47;;;;;;;120.18;55.33;;;;;;;;;;5085846;28;20043;-62
2022/01/11 09:55:14;;;;;;;103.18;50.55;;;;;;;;;;5085148;28;20036;-62
2022/01/11 09:57:41;;;;;;;111.45;54.13;;;;;;;;;;5088440;28;20075;-60
2022/01/11 10:00:09;;;;;;;112.65;52.00;;;;;;;;;;5063800;28;20051;-61
2022/01/11 10:02:36;;;;;;;93.70;44.83;;;;;;;;;;5078002;28;20063;-61
2022/01/11 10:05:05;;;;;;;86.90;44.22;;;;;;;;;;5077225;28;20046;-62
2022/01/11 10:07:41;;;;;;;82.68;42.80;;;;;;;;;;5085432;28;20082;-62
2022/01/11 10:10:12;;;;;;;88.45;47.22;;;;;;;;;;5080726;28;20479;-62
2022/01/11 10:12:46;;;;;;;80.40;44.35;;;;;;;;;;5073241;28;20040;-63
2022/01/11 10:15:12;;;;;;;;;;;;;;;;;;5081523;28;20059;-63
2022/01/11 10:17:40;;;;;;;90.43;44.25;;;;;;;;;;5107378;28;19924;-62
2022/01/11 10:20:17;;;;;;;69.55;36.47;;;;;;;;;;5061426;28;20028;-63
2022/01/11 10:22:46;;;;;;;66.50;34.05;;;;;;;;;;5034208;28;1145660;-63
2022/01/11 10:25:12;;;;;;;66.35;39.33;;;;;;;;;;5081457;28;20048;-64
2022/01/11 10:27:38;;;;;;;61.90;37.05;;;;;;;;;;5084252;28;20130;-63
2022/01/11 10:30:04;;;;;;;62.92;37.05;;;;;;;;;;5063106;28;20086;-63
2022/01/11 10:32:37;;;;;;;58.58;36.10;;;;;;;;;;5080122;28;20055;-63
2022/01/11 10:35:14;;;;;;;64.90;36.72;;;;;;;;;;5086883;28;20043;-63
2022/01/11 10:37:44;;;;;;;54.45;31.27;;;;;;;;;;5079894;28;20039;-63
2022/01/11 10:40:16;;;;;;;64.53;37.20;;;;;;;;;;5085603;28;20035;-63
2022/01/11 10:42:50;;;;;;;57.97;33.78;;;;;;;;;;5094436;28;20100;-63
2022/01/11 10:45:16;;;;;;;;;;;;;;;;;;5088858;28;20067;-63
2022/01/11 10:47:42;;;;;;;;;;;;;;;;;;5079400;28;20429;-63
2022/01/11 10:50:08;;;;;;;;;;;;;;;;;;5069262;28;19920;-63
2022/01/11 10:52:37;;;;;;;;;;;;;;;;;;5107546;28;19978;-62
2022/01/11 10:55:03;;;;;;;;;;;;;;;;;;5074484;28;19922;-61
2022/01/11 10:57:29;;;;;;;;;;;;;;;;;;5088290;28;19995;-62
2022/01/11 10:59:55;;;;;;;;;;;;;;;;;;5093569;28;20307;-63
2022/01/11 11:02:21;;;;;;;;;;;;;;;;;;5081537;28;20340;-62
2022/01/11 11:04:47;;;;;;;;;;;;;;;;;;5080678;28;20372;-62
2022/01/11 11:07:13;;;;;;;;;;;;;;;;;;5097852;28;20335;-62
2022/01/11 11:09:39;;;;;;;;;;;;;;;;;;5065194;28;19919;-62
2022/01/11 11:12:05;;;;;;;;;;;;;;;;;;5100822;28;19928;-61
2022/01/11 11:14:31;;;;;;;;;;;;;;;;;;5078795;28;19923;-62
2022/01/11 11:16:57;;;;;;;;;;;;;;;;;;5090346;28;19916;-62
2022/01/11 11:19:23;;;;;;;;;;;;;;;;;;5085327;28;19969;-61
2022/01/11 11:21:49;;;;;;;;;;;;;;;;;;5091054;28;19920;-61
2022/01/11 11:24:15;;;;;;;;;;;;;;;;;;5080777;28;19948;-61
2022/01/11 11:26:41;;;;;;;;;;;;;;;;;;5074547;28;19921;-60
2022/01/11 11:29:07;;;;;;;;;;;;;;;;;;5077396;28;20365;-60
2022/01/11 11:31:34;;;;;;;;;;;;;;;;;;5099846;28;19923;-61
2022/01/11 11:34:00;;;;;;;;;;;;;;;;;;5098628;28;20091;-61
2022/01/11 11:36:26;;;;;;;;;;;;;;;;;;5076537;28;19965;-61
2022/01/11 11:38:52;;;;;;;;;;;;;;;;;;5069185;28;19916;-61
2022/01/11 11:41:18;;;;;;;;;;;;;;;;;;5074852;28;19926;-61
2022/01/11 11:43:43;;;;;;;;;;;;;;;;;;5088027;28;19927;-62
2022/01/11 11:46:09;;;;;;;;;;;;;;;;;;5106524;28;19998;-62
2022/01/11 11:48:35;;;;;;;;;;;;;;;;;;5092826;28;19924;-61
2022/01/11 11:51:01;;;;;;;;;;;;;;;;;;5084706;28;20376;-61
2022/01/11 11:53:28;;;;;;;;;;;;;;;;;;5090137;28;19924;-62
2022/01/11 11:55:54;;;;;;;;;;;;;;;;;;5077122;28;19923;-62
2022/01/11 11:58:20;;;;;;;;;;;;;;;;;;5077842;28;19916;-60
2022/01/11 12:00:46;;;;;;;;;;;;;;;;;;5097428;28;19930;-60
2022/01/11 12:03:12;;;;;;;;;;;;;;;;;;5059327;28;19939;-60
2022/01/11 12:05:38;;;;;;;;;;;;;;;;;;5102169;28;19916;-61
2022/01/11 12:08:04;;;;;;;;;;;;;;;;;;5108012;28;20288;-59
2022/01/11 12:10:31;;;;;;;;;;;;;;;;;;5100707;28;19923;-61
2022/01/11 12:13:00;;;;;;;;;;;;;;;;;;5076549;28;19919;-61
2022/01/11 12:15:31;;;;;;;;;;;;;;;;;;5068187;28;19938;-62
2022/01/11 12:17:57;;;;;;;;;;;;;;;;;;5075972;28;20284;-62
2022/01/11 12:20:23;;;;;;;;;;;;;;;;;;5084369;28;19920;-62
2022/01/11 12:22:49;;;;;;;;;;;;;;;;;;5057809;28;19926;-62
2022/01/11 12:25:15;;;;;;;;;;;;;;;;;;5071794;28;20313;-62
2022/01/11 12:27:41;;;;;;;;;;;;;;;;;;5076063;28;19920;-62
2022/01/11 12:30:07;;;;;;;;;;;;;;;;;;5083206;28;19994;-62
2022/01/11 12:32:33;;;;;;;;;;;;;;;;;;5075573;28;19923;-62
2022/01/11 12:34:59;;;;;;;;;;;;;;;;;;5081270;28;19969;-62
2022/01/11 12:37:25;;;;;;;;;;;;;;;;;;5079984;28;20000;-62
2022/01/11 12:39:51;;;;;;;;;;;;;;;;;;5074173;28;19915;-61
2022/01/11 12:42:17;;;;;;;;;;;;;;;;;;5099662;28;19948;-63
2022/01/11 12:47:10;;;;;;;;;;;;;;;;;;5090266;28;20377;-62
2022/01/11 12:49:36;;;;;;;;;;;;;;;;;;5073078;28;19920;-63
2022/01/11 12:52:17;;;;;;;;;;;;;;;;;;5076837;28;19974;-62
2022/01/11 12:54:48;;;;;;;;;;;;;;;;;;5089621;28;20120;-62
2022/01/11 12:57:14;;;;;;;;;;;;;;;;;;5090496;28;19920;-62
2022/01/11 12:59:40;;;;;;;;;;;;;;;;;;5076074;28;19923;-62
2022/01/11 13:02:08;;;;;;;;;;;;;;;;;;5080695;28;19962;-60
2022/01/11 13:04:34;;;;;;;;;;;;;;;;;;5070472;28;20038;-61
2022/01/11 13:07:00;;;;;;;;;;;;;;;;;;5078830;28;19955;-62
2022/01/11 13:09:25;;;;;;;;;;;;;;;;;;5076174;28;20363;-62
2022/01/11 13:11:51;;;;;;;;;;;;;;;;;;5091073;28;19923;-61
2022/01/11 13:16:56;;;;;;;;;;;;;;;;;;5091597;28;19920;-62
2022/01/11 13:19:22;;;;;;;;;;;;;;;;;;5090710;28;19923;-61
2022/01/11 13:21:49;;;;;;;;;;;;;;;;;;5078938;28;19916;-61
2022/01/11 13:26:47;;;;;;;;;;;;;;;;;;5096650;28;19972;-61
2022/01/11 13:29:13;;;;;;;;;;;;;;;;;;5066877;28;19981;-62
2022/01/11 13:31:40;;;;;;;;;;;;;;;;;;5095234;28;19924;-60
2022/01/11 13:34:06;;;;;;;;;;;;;;;;;;5072322;28;19971;-61
2022/01/11 13:36:35;;;;;;;;;;;;;;;;;;5075923;28;19977;-61
2022/01/11 13:39:01;;;;;;;;;;;;;;;;;;5098030;28;19930;-61
2022/01/11 13:41:27;;;;;;;;;;;;;;;;;;5081068;28;19924;-62
2022/01/11 13:43:53;;;;;;;;;;;;;;;;;;5096780;28;19919;-61
2022/01/11 13:46:21;;;;;;;;;;;;;;;;;;5096502;28;20027;-61
2022/01/11 13:48:47;;;;;;;;;;;;;;;;;;5080415;28;19926;-60
2022/01/11 13:51:13;;;;;;;;;;;;;;;;;;5062813;28;19919;-61
2022/01/11 13:53:39;;;;;;;;;;;;;;;;;;5096656;28;19927;-62
2022/01/11 13:56:05;;;;;;;;;;;;;;;;;;5102573;28;20297;-61
2022/01/11 13:58:31;;;;;;;;;;;;;;;;;;5076725;28;19919;-62
2022/01/11 14:00:57;;;;;;;;;;;;;;;;;;5077239;28;20026;-62
2022/01/11 14:03:23;;;;;;;;;;;;;;;;;;5092501;28;19971;-61
2022/01/11 14:05:49;;;;;;;;;;;;;;;;;;5097380;28;19919;-61
2022/01/11 14:08:15;;;;;;;;;;;;;;;;;;5076479;28;19920;-61
2022/01/11 14:10:52;;;;;;;;;;;;;;;;;;5083297;28;19916;-62
2022/01/11 14:13:21;;;;;;;;;;;;;;;;;;5092293;28;19920;-62
2022/01/11 14:15:47;;;;;;;;;;;;;;;;;;5100663;28;19946;-62
2022/01/11 14:18:15;;;;;;;;;;;;;;;;;;5092748;28;20452;-63
2022/01/11 14:20:41;;;;;;;;;;;;;;;;;;5076629;28;19915;-62
2022/01/11 14:23:07;;;;;;;;;;;;;;;;;;5103519;28;20017;-61
2022/01/11 14:25:34;;;;;;;;;;;;;;;;;;5083131;28;19977;-62
2022/01/11 14:28:00;;;;;;;;;;;;;;;;;;5076944;28;19969;-61
2022/01/11 14:30:26;;;;;;;;;;;;;;;;;;5093160;28;19975;-62
2022/01/11 14:32:52;;;;;;;;;;;;;;;;;;5075331;28;19927;-61
2022/01/11 14:35:18;;;;;;;;;;;;;;;;;;5079038;28;19924;-62
2022/01/11 14:37:44;;;;;;;;;;;;;;;;;;5093087;28;19971;-61
2022/01/11 14:40:10;;;;;;;;;;;;;;;;;;5092530;28;19967;-62
2022/01/11 14:42:36;;;;;;;;;;;;;;;;;;5091590;28;19924;-63
2022/01/11 14:45:01;;;;;;;;;;;;;;;;;;5090916;28;19924;-62